Terminal Aerodrome Forecast
Issued by NWS

Home | Current Version | Previous Version | Text Only | Print | Product List | Glossary On
Versions: 1 2 3 4 5 6 7 8 9 10 11 12 13 14
000
FTUS45 KABQ 231139
TAFFMN
TAF
KFMN 231139Z 2312/2412 10006KT P6SM SCT150
     FM231800 27011KT P6SM SCT120
      TEMPO 2321/2401 28011G21KT
     FM240200 35009KT P6SM SCT110
     FM240600 09006KT P6SM FEW110=

USA.gov is the U.S. government's official web portal to all federal, state and local government web resources and services.